createdAt,value
2023-02-11T00:01:21.569Z,8.52
2023-02-11T00:03:48.316Z,8.59
2023-02-11T00:06:15.152Z,8.79
2023-02-11T00:08:41.757Z,9.45
2023-02-11T00:11:13.377Z,9.12
2023-02-11T00:13:40.064Z,8.96
2023-02-11T00:16:11.769Z,8.98
2023-02-11T00:18:38.491Z,8.95
2023-02-11T00:21:19.564Z,9.05
2023-02-11T00:23:47.058Z,9.33
2023-02-11T00:26:16.610Z,9.25
2023-02-11T00:28:44.090Z,9.21
2023-02-11T00:31:11.641Z,9.00
2023-02-11T00:33:38.375Z,9.21
2023-02-11T00:36:07.640Z,8.98
2023-02-11T00:38:34.346Z,8.56
2023-02-11T00:41:01.068Z,9.06
2023-02-11T00:43:27.875Z,9.05
2023-02-11T00:45:54.474Z,9.13
2023-02-11T00:48:21.079Z,8.86
2023-02-11T00:50:47.710Z,8.79
2023-02-11T00:53:14.336Z,8.53
2023-02-11T00:55:40.952Z,8.44
2023-02-11T00:58:07.701Z,8.39
2023-02-11T01:00:35.168Z,8.76
2023-02-11T01:03:01.777Z,8.53
2023-02-11T01:05:28.974Z,8.91
2023-02-11T01:07:55.737Z,8.77
2023-02-11T01:10:22.372Z,8.57
2023-02-11T01:12:49.011Z,8.46
2023-02-11T01:15:19.409Z,8.67
2023-02-11T01:17:46.134Z,8.29
2023-02-11T01:20:16.918Z,8.25
2023-02-11T01:22:43.588Z,8.54
2023-02-11T01:25:10.471Z,8.16
2023-02-11T01:27:37.527Z,8.63
2023-02-11T01:30:05.628Z,8.70
2023-02-11T01:32:32.488Z,8.50
2023-02-11T01:34:59.053Z,8.18
2023-02-11T01:37:25.845Z,8.36
2023-02-11T01:39:52.498Z,8.54
2023-02-11T01:42:20.940Z,8.45
2023-02-11T01:44:51.393Z,8.46
2023-02-11T01:47:18.811Z,8.54
2023-02-11T01:49:50.950Z,8.47
2023-02-11T01:52:22.403Z,8.61
2023-02-11T01:55:24.444Z,8.56
2023-02-11T01:57:52.972Z,8.57
2023-02-11T02:00:26.640Z,8.63
2023-02-11T02:03:15.954Z,8.41
2023-02-11T02:06:16.793Z,8.33
2023-02-11T02:08:55.604Z,8.00
2023-02-11T02:11:22.758Z,8.33
2023-02-11T02:13:49.546Z,8.15
2023-02-11T02:16:18.880Z,8.23
2023-02-11T02:19:07.468Z,8.24
2023-02-11T02:21:45.217Z,8.40
2023-02-11T02:24:24.065Z,8.51
2023-02-11T02:27:25.637Z,8.95
2023-02-11T02:29:57.872Z,8.55
2023-02-11T02:32:30.527Z,8.43
2023-02-11T02:35:04.715Z,8.23
2023-02-11T02:37:37.613Z,8.09
2023-02-11T02:40:10.005Z,8.38
2023-02-11T02:42:36.898Z,8.59
2023-02-11T02:45:03.658Z,8.06
2023-02-11T02:47:30.446Z,8.04
2023-02-11T02:49:57.026Z,8.27
2023-02-11T02:52:33.724Z,8.21
2023-02-11T02:55:16.296Z,8.35
2023-02-11T02:58:18.313Z,8.53
2023-02-11T03:01:11.992Z,8.08
2023-02-11T03:04:18.333Z,8.30
2023-02-11T03:06:53.846Z,7.97
2023-02-11T03:09:28.644Z,8.05
2023-02-11T03:11:55.699Z,8.14
2023-02-11T03:14:24.443Z,8.17
2023-02-11T03:16:51.912Z,7.50
2023-02-11T03:19:24.655Z,7.64
2023-02-11T03:21:52.442Z,7.67
2023-02-11T03:24:39.194Z,7.51
2023-02-11T03:27:22.099Z,7.84
2023-02-11T03:29:49.398Z,7.55
2023-02-11T03:32:37.053Z,7.54
2023-02-11T03:35:29.425Z,7.70
2023-02-11T03:38:04.470Z,7.95
2023-02-11T03:40:41.436Z,7.60
2023-02-11T03:43:34.095Z,7.99
2023-02-11T03:46:01.762Z,7.83
2023-02-11T03:48:32.671Z,7.59
2023-02-11T03:51:02.149Z,8.13
2023-02-11T03:53:28.790Z,8.28
2023-02-11T03:55:57.151Z,8.26
2023-02-11T03:58:23.745Z,8.00
2023-02-11T04:00:50.434Z,8.03
2023-02-11T04:03:17.232Z,7.74
2023-02-11T04:05:46.025Z,7.56
2023-02-11T04:08:12.917Z,7.60
2023-02-11T04:10:39.526Z,7.99
2023-02-11T04:13:06.116Z,7.73
2023-02-11T04:15:32.856Z,7.72
2023-02-11T04:17:59.522Z,7.55
2023-02-11T04:20:26.130Z,7.86
2023-02-11T04:22:52.747Z,7.96
2023-02-11T04:25:19.450Z,8.44
2023-02-11T04:27:46.051Z,9.10
2023-02-11T04:30:13.224Z,8.44
2023-02-11T04:32:39.827Z,8.49
2023-02-11T04:35:06.642Z,8.21
2023-02-11T04:37:33.235Z,8.28
2023-02-11T04:39:59.872Z,7.83
2023-02-11T04:42:26.517Z,8.00
2023-02-11T04:44:53.146Z,7.80
2023-02-11T04:47:19.697Z,7.89
2023-02-11T04:49:46.424Z,7.95
2023-02-11T04:52:13.055Z,8.05
2023-02-11T04:54:39.719Z,8.01
2023-02-11T04:57:06.762Z,7.85
2023-02-11T04:59:33.397Z,7.96
2023-02-11T05:01:59.973Z,7.81
2023-02-11T05:04:26.627Z,7.73
2023-02-11T05:06:53.309Z,7.59
2023-02-11T05:09:20.018Z,7.89
2023-02-11T05:11:46.695Z,8.03
2023-02-11T05:14:13.534Z,7.71
2023-02-11T05:16:41.132Z,7.71
2023-02-11T05:19:07.800Z,7.36
2023-02-11T05:21:34.440Z,8.06
2023-02-11T05:24:01.062Z,7.62
2023-02-11T05:26:29.762Z,7.50
2023-02-11T05:28:56.491Z,7.28
2023-02-11T05:31:23.083Z,7.66
2023-02-11T05:33:49.643Z,7.45
2023-02-11T05:36:16.847Z,7.37
2023-02-11T05:38:43.760Z,7.73
2023-02-11T05:41:11.888Z,7.63
2023-02-11T05:43:38.635Z,7.74
2023-02-11T05:46:05.794Z,7.69
2023-02-11T05:48:32.925Z,7.77
2023-02-11T05:50:59.564Z,7.74
2023-02-11T05:53:26.275Z,7.23
2023-02-11T05:55:53.177Z,7.49
2023-02-11T05:58:19.832Z,7.76
2023-02-11T06:00:46.490Z,7.46
2023-02-11T06:03:13.148Z,7.95
2023-02-11T06:05:39.815Z,8.48
2023-02-11T06:08:06.384Z,8.30
2023-02-11T06:10:33.054Z,8.15
2023-02-11T06:12:59.697Z,8.40
2023-02-11T06:15:26.346Z,8.33
2023-02-11T06:17:52.944Z,8.37
2023-02-11T06:20:19.795Z,8.10
2023-02-11T06:22:46.707Z,8.07
2023-02-11T06:25:14.147Z,8.46
2023-02-11T06:27:40.868Z,8.03
2023-02-11T06:30:08.548Z,8.22
2023-02-11T06:32:43.948Z,7.72
2023-02-11T06:35:12.652Z,7.70
2023-02-11T06:37:40.226Z,7.72
2023-02-11T06:40:07.193Z,7.88
2023-02-11T06:42:34.662Z,7.97
2023-02-11T06:45:01.306Z,7.97
2023-02-11T06:47:28.015Z,8.21
2023-02-11T06:49:54.606Z,8.13
2023-02-11T06:52:21.228Z,8.23
2023-02-11T06:54:47.844Z,8.23
2023-02-11T06:57:14.510Z,8.00
2023-02-11T06:59:41.142Z,7.59
2023-02-11T07:02:09.811Z,7.91
2023-02-11T07:04:36.452Z,7.74
2023-02-11T07:07:03.082Z,7.89
2023-02-11T07:09:29.677Z,8.08
2023-02-11T07:11:56.358Z,8.08
2023-02-11T07:14:22.920Z,7.97
2023-02-11T07:16:49.521Z,7.78
2023-02-11T07:19:16.268Z,7.74
2023-02-11T07:21:42.903Z,7.84
2023-02-11T07:24:11.247Z,8.02
2023-02-11T07:26:38.169Z,8.03
2023-02-11T07:29:05.062Z,8.15
2023-02-11T07:31:32.405Z,8.42
2023-02-11T07:34:01.072Z,8.16
2023-02-11T07:36:28.703Z,7.92
2023-02-11T07:38:55.376Z,8.22
2023-02-11T07:41:23.997Z,8.25
2023-02-11T07:43:50.905Z,8.38
2023-02-11T07:46:20.745Z,8.57
2023-02-11T07:48:47.517Z,7.88
2023-02-11T07:51:15.516Z,8.30
2023-02-11T07:53:42.575Z,8.38
2023-02-11T07:56:10.606Z,8.36
2023-02-11T07:58:37.424Z,8.36
2023-02-11T08:01:05.906Z,8.67
2023-02-11T08:03:33.251Z,8.37
2023-02-11T08:06:06.744Z,8.50
2023-02-11T08:08:33.703Z,8.42
2023-02-11T08:11:09.384Z,8.46
2023-02-11T08:13:36.674Z,8.67
2023-02-11T08:16:04.410Z,8.60
2023-02-11T08:18:31.548Z,8.42
2023-02-11T08:21:04.798Z,8.37
2023-02-11T08:23:31.546Z,8.31
2023-02-11T08:26:05.464Z,8.37
2023-02-11T08:28:32.340Z,8.75
2023-02-11T08:31:05.797Z,8.18
2023-02-11T08:33:33.513Z,8.57
2023-02-11T08:36:00.240Z,8.30
2023-02-11T08:38:26.930Z,8.24
2023-02-11T08:40:53.610Z,8.36
2023-02-11T08:43:20.317Z,8.16
2023-02-11T08:45:47.106Z,8.38
2023-02-11T08:48:13.739Z,7.89
2023-02-11T08:50:40.564Z,8.22
2023-02-11T08:53:07.450Z,8.13
2023-02-11T08:55:34.528Z,8.36
2023-02-11T08:58:01.145Z,8.24
2023-02-11T09:00:28.000Z,8.25
2023-02-11T09:02:57.142Z,8.34
2023-02-11T09:05:23.864Z,8.46
2023-02-11T09:07:50.596Z,8.64
2023-02-11T09:10:17.239Z,8.69
2023-02-11T09:12:43.846Z,8.57
2023-02-11T09:15:10.498Z,9.07
2023-02-11T09:17:39.413Z,9.30
